Arnett, West Virginia
Current Conditions -  °F | °C
As of 7:51 PM on Saturday 25 Oct 2014 (Local Time) from KBKW Reporting Station
Clear Clear  
Wind Chill: 56°   Ceiling: Unl
Heat Index: 56°   Visibility: 10mi
Dew Point: 45°   Wind: 9mph
Humidity: 67%   Direction: 250°WSW
Pressure: 29.97"   Gusts: NA
Location:  37.83°N, 81.43°W
Report Text: KBKW 252351Z AUTO 25008KT 10SM CLR 13/07 A2997 RMK AO2 SLP148 T01330072 10172 20133 55002 TSNO
Loading
Personal Weather Stations






























Interactive Weather Map
Tropical Storm Tracking
New forecast layout! Learn more

10-Day Weather Forecast

Advertisements
Track Severe Weather on mobile